Terminal Aerodrome Forecast
Issued by NWS Sioux Falls, SD

Home | Current Version | Previous Version | Text Only | Print | Product List | Glossary Off
Versions: 1 2 3 4 5 6 7 8 9 10 11 12 13 14 15 16 17

000
FTUS43 KFSD 301120
TAFSUX
TAF
KSUX 301120Z 3012/3112 12005KT P6SM BKN250
     FM301700 17010KT P6SM BKN200
     FM302000 18013KT P6SM BKN250
     FM310500 17007KT P6SM SHRA VCTS BKN090CB
     FM310800 20008KT P6SM SHRA VCTS BKN080CB
     FM310900 21008KT P6SM BKN090
     FM311100 26007KT P6SM OVC060=

USA.gov is the U.S. government's official web portal to all federal, state and local government web resources and services.